Time;durP1;ratioP1;P1;durP2;ratioP2;P2;SDS_P1;SDS_P2;PMS_P1;PMS_P2;Temp;Humidity;BMP_temperature;BMP_pressure;BME280_temperature;BME280_humidity;BME280_pressure;Samples;Min_cycle;Max_cycle;Signal;HPM_P1;HPM_P2
2023/03/30 00:02:02;;;;;;;7.60;4.38;;;;;;;;;;5006537;28;20026;-75
2023/03/30 00:04:28;;;;;;;9.02;5.05;;;;;;;;;;5012162;28;20133;-75
2023/03/30 00:06:54;;;;;;;7.57;4.47;;;;;;;;;;5020679;28;20124;-75
2023/03/30 00:09:21;;;;;;;7.82;4.60;;;;;;;;;;5021145;28;20451;-75
2023/03/30 00:11:46;;;;;;;6.07;4.40;;;;;;;;;;5020949;28;20079;-75
2023/03/30 00:14:12;;;;;;;6.80;4.40;;;;;;;;;;5020386;28;20017;-75
2023/03/30 00:16:37;;;;;;;11.27;6.35;;;;;;;;;;5019525;28;20033;-75
2023/03/30 00:19:02;;;;;;;7.50;5.07;;;;;;;;;;5019911;28;20132;-75
2023/03/30 00:21:28;;;;;;;9.25;4.68;;;;;;;;;;5021072;28;20021;-75
2023/03/30 00:23:53;;;;;;;10.40;4.80;;;;;;;;;;5020644;28;20029;-75
2023/03/30 00:26:19;;;;;;;6.50;4.35;;;;;;;;;;5021152;28;20029;-75
2023/03/30 00:28:45;;;;;;;8.88;5.57;;;;;;;;;;5021009;28;20402;-75
2023/03/30 00:31:10;;;;;;;7.63;5.30;;;;;;;;;;5020227;28;20434;-75
2023/03/30 00:33:35;;;;;;;8.77;5.05;;;;;;;;;;5019555;28;20021;-75
2023/03/30 00:36:01;;;;;;;8.73;5.38;;;;;;;;;;5009675;28;20376;-75
2023/03/30 00:38:28;;;;;;;7.93;5.28;;;;;;;;;;5021354;28;20112;-75
2023/03/30 00:40:57;;;;;;;8.40;4.97;;;;;;;;;;5019683;28;20462;-75
2023/03/30 00:43:23;;;;;;;8.40;4.97;;;;;;;;;;5021228;28;20212;-75
2023/03/30 00:45:49;;;;;;;8.82;4.65;;;;;;;;;;5020427;28;20511;-76
2023/03/30 00:48:20;;;;;;;9.35;5.63;;;;;;;;;;5033553;28;20048;-75
2023/03/30 00:50:52;;;;;;;8.07;5.32;;;;;;;;;;4999597;28;20446;-75
2023/03/30 00:53:23;;;;;;;11.35;4.45;;;;;;;;;;5014717;28;20022;-75
2023/03/30 00:55:49;;;;;;;7.13;4.75;;;;;;;;;;5020831;28;20025;-75
2023/03/30 00:58:15;;;;;;;10.88;6.00;;;;;;;;;;5001500;28;20066;-75
2023/03/30 01:00:42;;;;;;;7.88;4.70;;;;;;;;;;4999341;28;20468;-75
2023/03/30 01:03:16;;;;;;;7.78;4.85;;;;;;;;;;5011721;28;20037;-75
2023/03/30 01:05:43;;;;;;;4.80;3.92;;;;;;;;;;5020056;28;20057;-75
2023/03/30 01:08:12;;;;;;;8.02;4.38;;;;;;;;;;5020192;28;20021;-75
2023/03/30 01:10:38;;;;;;;6.20;4.30;;;;;;;;;;5018323;28;20475;-75
2023/03/30 01:13:04;;;;;;;6.40;4.78;;;;;;;;;;5020714;28;20064;-75
2023/03/30 01:15:33;;;;;;;7.57;5.38;;;;;;;;;;5018022;28;20121;-75
2023/03/30 01:17:58;;;;;;;12.13;5.63;;;;;;;;;;5020500;28;20029;-75
2023/03/30 01:20:30;;;;;;;9.55;4.72;;;;;;;;;;5019733;28;20384;-75
2023/03/30 01:23:14;;;;;;;6.00;4.35;;;;;;;;;;5006766;28;20467;-75
2023/03/30 01:26:12;;;;;;;7.63;4.50;;;;;;;;;;5020199;28;20128;-75
2023/03/30 01:28:54;;;;;;;5.97;4.05;;;;;;;;;;4996466;28;20069;-75
2023/03/30 01:31:38;;;;;;;8.60;3.92;;;;;;;;;;5019800;28;20021;-75
2023/03/30 01:34:16;;;;;;;6.13;4.00;;;;;;;;;;5019376;28;20061;-75
2023/03/30 01:36:54;;;;;;;10.15;4.72;;;;;;;;;;5019453;28;20131;-75
2023/03/30 01:39:19;;;;;;;5.93;4.15;;;;;;;;;;5018794;28;20506;-75
2023/03/30 01:41:57;;;;;;;6.93;4.22;;;;;;;;;;5019630;28;20029;-75
2023/03/30 01:44:25;;;;;;;6.68;3.85;;;;;;;;;;5019849;28;20018;-75
2023/03/30 01:46:55;;;;;;;5.97;3.90;;;;;;;;;;5015310;28;20054;-76
2023/03/30 01:49:29;;;;;;;10.07;3.97;;;;;;;;;;5001505;28;20583;-75
2023/03/30 01:51:55;;;;;;;7.18;3.67;;;;;;;;;;5018769;28;20018;-75
2023/03/30 01:54:25;;;;;;;6.80;3.70;;;;;;;;;;5019244;28;20501;-75
2023/03/30 01:56:54;;;;;;;5.57;3.55;;;;;;;;;;5020147;28;20335;-75
2023/03/30 01:59:26;;;;;;;7.53;4.32;;;;;;;;;;5019435;28;20013;-75
2023/03/30 02:01:59;;;;;;;7.05;4.25;;;;;;;;;;5020022;28;20021;-75
2023/03/30 02:04:25;;;;;;;7.35;4.15;;;;;;;;;;5021362;28;20021;-75
2023/03/30 02:06:53;;;;;;;7.10;4.10;;;;;;;;;;5022869;28;20025;-75
2023/03/30 02:09:22;;;;;;;4.68;4.03;;;;;;;;;;5023798;28;20024;-75
2023/03/30 02:11:50;;;;;;;4.93;3.60;;;;;;;;;;5023174;28;20364;-75
2023/03/30 02:14:16;;;;;;;5.25;3.97;;;;;;;;;;5009669;28;20100;-75
2023/03/30 02:16:45;;;;;;;6.97;4.30;;;;;;;;;;5022366;28;20692;-75
2023/03/30 02:19:11;;;;;;;7.15;4.18;;;;;;;;;;4987858;28;20614;-75
2023/03/30 02:21:37;;;;;;;7.20;4.10;;;;;;;;;;5012577;28;20108;-76
2023/03/30 02:24:03;;;;;;;6.32;3.88;;;;;;;;;;5022834;28;20010;-75
2023/03/30 02:26:29;;;;;;;7.47;4.72;;;;;;;;;;5021663;28;20029;-75
2023/03/30 02:28:54;;;;;;;14.10;6.25;;;;;;;;;;5022446;28;20024;-75
2023/03/30 02:31:20;;;;;;;6.10;4.32;;;;;;;;;;5023183;28;20511;-75
2023/03/30 02:34:04;;;;;;;5.90;4.15;;;;;;;;;;5022384;28;20026;-76
2023/03/30 02:36:33;;;;;;;5.55;4.15;;;;;;;;;;5020922;28;20869;-75
2023/03/30 02:39:01;;;;;;;4.28;3.35;;;;;;;;;;5021788;28;20087;-75
2023/03/30 02:41:28;;;;;;;;;;;;;;;;;;5020966;28;20037;-76
2023/03/30 02:43:59;;;;;;;4.47;3.50;;;;;;;;;;4994283;28;19905;-75
2023/03/30 02:46:47;;;;;;;5.65;3.70;;;;;;;;;;5019351;28;20440;-75
2023/03/30 02:49:21;;;;;;;4.70;3.20;;;;;;;;;;5011528;28;20100;-75
2023/03/30 02:51:52;;;;;;;5.18;3.25;;;;;;;;;;5022308;28;20029;-75
2023/03/30 02:54:26;;;;;;;7.47;3.47;;;;;;;;;;5020701;28;20032;-75
2023/03/30 02:57:10;;;;;;;6.57;4.78;;;;;;;;;;5022623;28;20052;-76
2023/03/30 02:59:47;;;;;;;7.82;4.40;;;;;;;;;;5021616;28;20017;-75
2023/03/30 03:02:16;;;;;;;5.65;4.10;;;;;;;;;;5022754;28;20013;-76
2023/03/30 03:04:45;;;;;;;8.52;3.90;;;;;;;;;;5020988;28;20024;-75
2023/03/30 03:07:10;;;;;;;6.68;5.22;;;;;;;;;;5021621;28;20041;-77
2023/03/30 03:09:36;;;;;;;8.07;4.63;;;;;;;;;;5021943;28;20501;-75
2023/03/30 03:12:01;;;;;;;18.80;10.45;;;;;;;;;;5003933;28;20018;-75
2023/03/30 03:14:28;;;;;;;5.65;3.67;;;;;;;;;;4994007;28;20021;-75
2023/03/30 03:16:53;;;;;;;9.65;4.28;;;;;;;;;;5017167;28;20521;-75
2023/03/30 03:19:19;;;;;;;8.45;4.88;;;;;;;;;;5022111;28;20072;-76
2023/03/30 03:21:44;;;;;;;14.70;7.43;;;;;;;;;;5021526;28;20014;-76
2023/03/30 03:24:12;;;;;;;8.25;6.20;;;;;;;;;;5022322;28;20018;-76
2023/03/30 03:26:38;;;;;;;6.32;4.57;;;;;;;;;;5000635;28;20036;-77
2023/03/30 03:29:03;;;;;;;7.53;4.57;;;;;;;;;;5003048;28;20818;-77
2023/03/30 03:31:29;;;;;;;7.00;5.18;;;;;;;;;;5020816;28;20022;-77
2023/03/30 03:33:54;;;;;;;5.43;4.85;;;;;;;;;;5020096;28;20032;-77
2023/03/30 03:36:21;;;;;;;5.07;3.83;;;;;;;;;;5020881;28;20025;-77
2023/03/30 03:38:46;;;;;;;4.97;3.15;;;;;;;;;;5021461;28;20503;-77
2023/03/30 03:41:12;;;;;;;4.50;3.78;;;;;;;;;;5022001;28;20071;-77
2023/03/30 03:43:37;;;;;;;4.05;3.42;;;;;;;;;;5021480;28;20151;-77
2023/03/30 03:46:02;;;;;;;7.30;3.83;;;;;;;;;;5021201;28;20045;-77
2023/03/30 03:48:28;;;;;;;6.65;3.08;;;;;;;;;;5029143;28;20076;-77
2023/03/30 03:50:54;;;;;;;5.38;4.07;;;;;;;;;;5019756;28;20645;-77
2023/03/30 03:53:20;;;;;;;8.85;6.32;;;;;;;;;;5021982;28;20171;-77
2023/03/30 03:55:45;;;;;;;13.88;7.20;;;;;;;;;;5021261;28;20546;-77
2023/03/30 03:58:11;;;;;;;12.90;8.02;;;;;;;;;;5022262;28;20404;-77
2023/03/30 04:00:36;;;;;;;8.73;6.30;;;;;;;;;;5021522;28;20175;-77
2023/03/30 04:03:03;;;;;;;8.57;6.30;;;;;;;;;;5022073;28;20490;-77
2023/03/30 04:05:29;;;;;;;7.10;5.60;;;;;;;;;;5021147;28;20032;-77
2023/03/30 04:07:55;;;;;;;5.78;4.22;;;;;;;;;;5019976;28;20037;-76
2023/03/30 04:10:21;;;;;;;7.60;4.60;;;;;;;;;;5021657;28;20044;-77
2023/03/30 04:12:46;;;;;;;6.15;4.10;;;;;;;;;;5021147;28;20783;-77
2023/03/30 04:15:12;;;;;;;5.13;4.07;;;;;;;;;;5021904;28;20034;-77
2023/03/30 04:17:37;;;;;;;8.63;4.93;;;;;;;;;;5020995;28;20021;-77
2023/03/30 04:20:04;;;;;;;5.18;4.50;;;;;;;;;;5021726;28;20017;-77
2023/03/30 04:22:32;;;;;;;6.07;4.45;;;;;;;;;;5021010;28;20522;-77
2023/03/30 04:24:58;;;;;;;7.82;5.03;;;;;;;;;;5003475;28;20734;-77
2023/03/30 04:27:24;;;;;;;7.85;4.65;;;;;;;;;;5021090;28;20037;-77
2023/03/30 04:29:50;;;;;;;5.50;4.90;;;;;;;;;;5020928;28;20252;-76
2023/03/30 04:32:19;;;;;;;5.65;4.93;;;;;;;;;;5021474;28;20475;-77
2023/03/30 04:34:48;;;;;;;;;;;;;;;;;;5019949;28;20487;-77
2023/03/30 04:37:17;;;;;;;7.77;4.90;;;;;;;;;;5009682;28;20018;-77
2023/03/30 04:39:44;;;;;;;8.38;5.15;;;;;;;;;;4997162;28;20049;-77
2023/03/30 04:42:13;;;;;;;14.20;7.40;;;;;;;;;;4983786;28;20028;-77
2023/03/30 04:44:41;;;;;;;11.47;7.10;;;;;;;;;;5000265;28;20026;-77
2023/03/30 04:47:06;;;;;;;12.20;7.90;;;;;;;;;;5026075;28;20334;-77
2023/03/30 04:49:32;;;;;;;10.25;6.57;;;;;;;;;;5029302;28;20104;-77
2023/03/30 04:51:57;;;;;;;5.75;5.25;;;;;;;;;;5020964;28;20036;-77
2023/03/30 04:54:22;;;;;;;6.50;4.75;;;;;;;;;;4983649;28;20026;-77
2023/03/30 04:56:48;;;;;;;6.63;5.32;;;;;;;;;;5016275;28;20029;-77
2023/03/30 04:59:13;;;;;;;6.13;4.90;;;;;;;;;;5021695;28;20926;-77
2023/03/30 05:01:38;;;;;;;6.05;5.53;;;;;;;;;;5020669;28;20514;-79
2023/03/30 05:04:04;;;;;;;7.78;7.05;;;;;;;;;;5020132;28;20021;-79
2023/03/30 05:06:29;;;;;;;6.72;6.20;;;;;;;;;;5005730;28;20388;-78
2023/03/30 05:08:55;;;;;;;11.00;7.68;;;;;;;;;;5019625;28;20110;-79
2023/03/30 05:11:20;;;;;;;6.47;5.93;;;;;;;;;;5021998;28;20493;-78
2023/03/30 05:13:46;;;;;;;10.93;7.18;;;;;;;;;;5000492;28;20030;-78
2023/03/30 05:16:11;;;;;;;8.30;7.50;;;;;;;;;;5021251;28;20013;-78
2023/03/30 05:18:38;;;;;;;8.02;7.22;;;;;;;;;;5021134;28;20033;-79
2023/03/30 05:21:03;;;;;;;7.22;6.55;;;;;;;;;;5021304;28;20037;-79
2023/03/30 05:23:29;;;;;;;7.90;7.20;;;;;;;;;;5015123;28;20143;-79
2023/03/30 05:25:54;;;;;;;10.25;7.63;;;;;;;;;;5021141;28;20072;-79
2023/03/30 05:28:20;;;;;;;9.32;7.43;;;;;;;;;;5022134;28;20025;-79
2023/03/30 05:30:45;;;;;;;8.15;7.45;;;;;;;;;;5022603;28;20025;-79
2023/03/30 05:33:11;;;;;;;8.48;7.68;;;;;;;;;;5004239;28;20059;-79
2023/03/30 05:35:36;;;;;;;13.05;8.68;;;;;;;;;;5021880;28;20479;-79
2023/03/30 05:38:03;;;;;;;11.55;8.65;;;;;;;;;;5021888;28;20464;-79
2023/03/30 05:40:28;;;;;;;14.32;8.30;;;;;;;;;;5014276;28;20483;-79
2023/03/30 05:42:53;;;;;;;10.77;6.65;;;;;;;;;;5011692;28;20033;-77
2023/03/30 05:45:19;;;;;;;15.83;9.57;;;;;;;;;;5021685;28;20079;-77
2023/03/30 05:47:44;;;;;;;12.70;9.82;;;;;;;;;;5035145;28;20295;-78
2023/03/30 05:50:10;;;;;;;55.72;37.60;;;;;;;;;;4999880;28;20049;-78
2023/03/30 05:52:37;;;;;;;13.20;11.80;;;;;;;;;;4988629;28;20072;-78
2023/03/30 05:55:02;;;;;;;8.98;8.10;;;;;;;;;;5021760;28;20032;-76
2023/03/30 05:57:27;;;;;;;12.20;10.18;;;;;;;;;;5005666;28;20458;-77
2023/03/30 05:59:53;;;;;;;12.27;9.27;;;;;;;;;;5004841;28;20018;-76
2023/03/30 06:02:19;;;;;;;13.80;9.65;;;;;;;;;;5020723;28;20030;-76
2023/03/30 06:04:44;;;;;;;12.00;9.70;;;;;;;;;;5006778;28;20057;-75
2023/03/30 06:07:10;;;;;;;10.50;9.48;;;;;;;;;;4994285;28;20108;-76
2023/03/30 06:09:36;;;;;;;11.02;8.30;;;;;;;;;;5007738;28;20036;-75
2023/03/30 06:12:01;;;;;;;8.45;7.65;;;;;;;;;;5022896;28;20036;-76
2023/03/30 06:14:27;;;;;;;9.40;7.45;;;;;;;;;;5020757;28;20686;-76
2023/03/30 06:16:52;;;;;;;9.38;6.95;;;;;;;;;;5020923;28;20025;-76
2023/03/30 06:19:17;;;;;;;9.43;6.22;;;;;;;;;;5022863;28;20380;-76
2023/03/30 06:21:42;;;;;;;9.30;6.85;;;;;;;;;;5020380;28;20572;-77
2023/03/30 06:24:08;;;;;;;7.63;6.30;;;;;;;;;;5021555;28;20108;-77
2023/03/30 06:26:33;;;;;;;9.20;6.80;;;;;;;;;;5021662;28;20418;-76
2023/03/30 06:28:58;;;;;;;10.48;6.28;;;;;;;;;;5022778;28;20048;-77
2023/03/30 06:31:24;;;;;;;6.75;6.15;;;;;;;;;;5009761;28;21039;-77
2023/03/30 06:33:50;;;;;;;7.82;5.60;;;;;;;;;;5005359;28;20529;-77
2023/03/30 06:36:15;;;;;;;7.35;5.70;;;;;;;;;;5023824;28;20025;-77
2023/03/30 06:38:42;;;;;;;9.93;6.35;;;;;;;;;;5007169;28;20029;-76
2023/03/30 06:41:10;;;;;;;9.13;5.78;;;;;;;;;;5020456;28;20025;-77
2023/03/30 06:43:35;;;;;;;8.43;6.13;;;;;;;;;;5010537;28;20022;-77
2023/03/30 06:46:01;;;;;;;5.70;5.18;;;;;;;;;;5009725;28;20025;-76
2023/03/30 06:48:26;;;;;;;6.93;6.30;;;;;;;;;;4994978;28;20667;-77
2023/03/30 06:50:52;;;;;;;7.93;6.68;;;;;;;;;;5013329;28;20080;-77
2023/03/30 06:53:18;;;;;;;5.88;5.28;;;;;;;;;;5010567;28;20025;-76
2023/03/30 06:55:44;;;;;;;6.80;5.15;;;;;;;;;;5004193;28;20033;-76
2023/03/30 06:58:09;;;;;;;6.85;5.50;;;;;;;;;;5022597;28;20411;-76
2023/03/30 07:00:35;;;;;;;6.25;5.15;;;;;;;;;;5004209;28;20017;-75
2023/03/30 07:03:00;;;;;;;9.93;7.07;;;;;;;;;;5023549;28;20022;-75
2023/03/30 07:05:28;;;;;;;7.15;5.97;;;;;;;;;;5015967;28;20456;-75
2023/03/30 07:07:54;;;;;;;6.82;5.40;;;;;;;;;;5015738;28;20034;-75
2023/03/30 07:10:20;;;;;;;7.15;5.65;;;;;;;;;;4991055;28;20044;-76
2023/03/30 07:12:46;;;;;;;6.88;5.38;;;;;;;;;;5021888;28;20044;-77
2023/03/30 07:15:11;;;;;;;7.43;6.18;;;;;;;;;;5019532;28;20554;-77
2023/03/30 07:17:37;;;;;;;6.15;4.80;;;;;;;;;;5016269;28;20513;-77
2023/03/30 07:20:04;;;;;;;8.05;5.40;;;;;;;;;;5010537;28;20025;-77
2023/03/30 07:22:29;;;;;;;8.80;4.70;;;;;;;;;;4993976;28;20045;-76
2023/03/30 07:24:55;;;;;;;5.93;4.72;;;;;;;;;;5009673;28;20033;-76
2023/03/30 07:27:23;;;;;;;6.88;5.13;;;;;;;;;;5010357;28;20033;-76
2023/03/30 07:29:49;;;;;;;5.43;4.93;;;;;;;;;;4997210;28;20036;-77
2023/03/30 07:32:15;;;;;;;8.57;7.78;;;;;;;;;;5007669;28;20025;-77
2023/03/30 07:34:40;;;;;;;5.53;4.82;;;;;;;;;;5009326;28;20057;-76
2023/03/30 07:37:06;;;;;;;5.97;4.57;;;;;;;;;;5013178;28;20033;-76
2023/03/30 07:39:32;;;;;;;6.82;6.32;;;;;;;;;;4993763;28;20041;-74
2023/03/30 07:41:58;;;;;;;5.80;5.20;;;;;;;;;;5007360;28;20025;-75
2023/03/30 07:44:23;;;;;;;5.03;4.43;;;;;;;;;;5007899;28;20025;-76
2023/03/30 07:46:48;;;;;;;7.35;4.57;;;;;;;;;;5011923;28;20034;-76
2023/03/30 07:49:14;;;;;;;4.88;4.25;;;;;;;;;;4998552;28;20137;-76
2023/03/30 07:51:40;;;;;;;5.00;4.50;;;;;;;;;;5018026;28;20029;-75
2023/03/30 07:54:05;;;;;;;4.45;4.05;;;;;;;;;;5019319;28;20558;-75
2023/03/30 07:56:32;;;;;;;4.47;3.50;;;;;;;;;;5019353;28;20036;-76
2023/03/30 07:58:57;;;;;;;5.13;3.47;;;;;;;;;;5020562;28;20021;-76
2023/03/30 08:01:22;;;;;;;3.60;3.30;;;;;;;;;;4994066;28;20399;-76
2023/03/30 08:03:48;;;;;;;5.35;3.50;;;;;;;;;;5016498;28;20124;-77
2023/03/30 08:06:13;;;;;;;4.90;3.45;;;;;;;;;;5014855;28;20036;-77
2023/03/30 08:08:39;;;;;;;5.95;2.97;;;;;;;;;;5012025;28;20035;-76
2023/03/30 08:11:07;;;;;;;6.00;3.85;;;;;;;;;;5020815;28;20030;-76
2023/03/30 08:13:32;;;;;;;3.42;3.13;;;;;;;;;;5014866;28;20025;-76
2023/03/30 08:15:58;;;;;;;4.65;4.25;;;;;;;;;;5002349;28;20237;-76
2023/03/30 08:18:23;;;;;;;8.00;3.80;;;;;;;;;;5017618;28;20021;-77
2023/03/30 08:20:49;;;;;;;3.17;2.88;;;;;;;;;;5024167;28;20035;-76
2023/03/30 08:23:15;;;;;;;7.68;3.63;;;;;;;;;;4994341;28;20021;-76
2023/03/30 08:25:41;;;;;;;3.67;2.78;;;;;;;;;;5017646;28;20402;-77
2023/03/30 08:28:07;;;;;;;4.47;3.05;;;;;;;;;;5001361;28;20044;-77
2023/03/30 08:30:33;;;;;;;3.58;3.17;;;;;;;;;;4996239;28;20466;-77
2023/03/30 08:32:58;;;;;;;8.10;3.67;;;;;;;;;;5020078;28;20108;-77
2023/03/30 08:35:24;;;;;;;3.50;3.20;;;;;;;;;;5016525;28;20037;-77
2023/03/30 08:37:49;;;;;;;3.13;2.83;;;;;;;;;;5011153;28;20448;-77
2023/03/30 08:40:17;;;;;;;2.67;2.38;;;;;;;;;;5019656;28;20137;-77
2023/03/30 08:42:51;;;;;;;3.42;2.92;;;;;;;;;;5007669;28;20478;-77
2023/03/30 08:45:17;;;;;;;4.10;3.38;;;;;;;;;;5019165;28;20631;-77
2023/03/30 08:47:44;;;;;;;4.40;2.45;;;;;;;;;;5004354;28;20582;-77
2023/03/30 08:50:15;;;;;;;3.58;2.63;;;;;;;;;;5010672;28;20029;-77
2023/03/30 08:52:41;;;;;;;4.93;2.92;;;;;;;;;;5014657;28;20029;-76
2023/03/30 08:55:30;;;;;;;3.88;3.10;;;;;;;;;;5014004;28;20028;-77
2023/03/30 08:57:56;;;;;;;3.53;2.88;;;;;;;;;;5018749;28;20029;-77
2023/03/30 09:00:21;;;;;;;3.05;2.75;;;;;;;;;;5017349;28;20021;-77
2023/03/30 09:02:51;;;;;;;6.63;3.08;;;;;;;;;;5019138;28;20510;-76
2023/03/30 09:05:21;;;;;;;3.80;2.85;;;;;;;;;;5016954;28;20029;-75
2023/03/30 09:08:05;;;;;;;5.20;3.17;;;;;;;;;;5019134;28;20029;-76
2023/03/30 09:10:33;;;;;;;3.88;2.70;;;;;;;;;;5012077;28;20037;-76
2023/03/30 09:13:02;;;;;;;4.75;2.75;;;;;;;;;;5005246;28;20893;-75
2023/03/30 09:15:30;;;;;;;4.25;3.03;;;;;;;;;;5022353;28;20534;-77
2023/03/30 09:18:00;;;;;;;3.63;2.70;;;;;;;;;;5021021;28;20029;-76
2023/03/30 09:20:31;;;;;;;7.63;3.17;;;;;;;;;;5019523;28;20029;-76
2023/03/30 09:23:00;;;;;;;3.63;2.83;;;;;;;;;;5022561;28;20120;-75
2023/03/30 09:25:40;;;;;;;3.78;2.65;;;;;;;;;;5003844;28;20112;-75
2023/03/30 09:28:12;;;;;;;2.75;2.53;;;;;;;;;;5022143;28;20041;-75
2023/03/30 09:30:42;;;;;;;2.53;2.30;;;;;;;;;;5019977;28;20657;-75
2023/03/30 09:33:19;;;;;;;2.63;1.80;;;;;;;;;;5018158;28;20462;-75
2023/03/30 09:35:53;;;;;;;5.88;2.40;;;;;;;;;;5022166;28;20103;-75
2023/03/30 09:38:20;;;;;;;4.03;2.78;;;;;;;;;;5022134;28;20025;-75
2023/03/30 09:40:45;;;;;;;2.55;2.35;;;;;;;;;;5021947;28;20032;-75
2023/03/30 09:43:15;;;;;;;2.88;2.25;;;;;;;;;;5021779;28;20026;-77
2023/03/30 09:45:40;;;;;;;;;;;;;;;;;;5021516;28;20117;-75
2023/03/30 09:48:07;;;;;;;2.10;1.90;;;;;;;;;;5035581;28;20449;-76
2023/03/30 09:50:36;;;;;;;2.47;1.90;;;;;;;;;;5022293;28;20026;-74
2023/03/30 09:53:03;;;;;;;2.10;1.90;;;;;;;;;;5017831;28;20049;-74
2023/03/30 09:55:30;;;;;;;2.40;2.00;;;;;;;;;;5014560;28;20539;-75
2023/03/30 09:58:16;;;;;;;8.07;2.28;;;;;;;;;;5017037;28;20029;-76
2023/03/30 10:00:41;;;;;;;3.80;1.90;;;;;;;;;;5020596;28;20088;-74
2023/03/30 10:03:07;;;;;;;3.40;2.60;;;;;;;;;;5019600;28;20033;-75
2023/03/30 10:05:34;;;;;;;5.25;2.58;;;;;;;;;;5010608;28;20381;-75
2023/03/30 10:08:01;;;;;;;4.70;2.60;;;;;;;;;;5015213;28;20124;-75
2023/03/30 10:10:34;;;;;;;2.88;2.30;;;;;;;;;;5021616;28;20423;-75
2023/03/30 10:13:06;;;;;;;3.97;2.67;;;;;;;;;;5021901;28;20462;-75
2023/03/30 10:15:31;;;;;;;3.33;2.15;;;;;;;;;;5009525;28;20495;-74
2023/03/30 10:18:00;;;;;;;3.13;2.42;;;;;;;;;;5021582;28;20037;-75
2023/03/30 10:20:28;;;;;;;4.28;2.58;;;;;;;;;;5002475;28;20100;-75
2023/03/30 10:23:04;;;;;;;2.38;2.17;;;;;;;;;;5007881;28;20021;-74
2023/03/30 10:25:31;;;;;;;2.58;2.20;;;;;;;;;;5007103;28;20072;-75
2023/03/30 10:28:00;;;;;;;3.42;3.13;;;;;;;;;;5021052;28;20037;-74
2023/03/30 10:30:27;;;;;;;3.73;3.03;;;;;;;;;;5021175;28;20029;-74
2023/03/30 10:32:53;;;;;;;3.15;2.85;;;;;;;;;;5020893;28;20255;-74
2023/03/30 10:35:37;;;;;;;4.50;3.03;;;;;;;;;;5013631;28;20037;-74
2023/03/30 10:38:04;;;;;;;4.68;2.70;;;;;;;;;;5003953;28;20382;-75
2023/03/30 10:40:37;;;;;;;3.25;2.70;;;;;;;;;;5012703;28;20116;-75
2023/03/30 10:43:03;;;;;;;5.90;3.20;;;;;;;;;;5007785;28;20040;-75
2023/03/30 10:45:36;;;;;;;6.57;2.80;;;;;;;;;;5020320;28;20407;-76
2023/03/30 10:48:18;;;;;;;4.53;2.00;;;;;;;;;;5034093;28;20548;-74
2023/03/30 10:50:46;;;;;;;2.30;1.75;;;;;;;;;;5016402;28;20026;-74
2023/03/30 10:53:20;;;;;;;2.15;1.80;;;;;;;;;;5001847;28;20063;-75
2023/03/30 10:55:52;;;;;;;2.47;1.83;;;;;;;;;;5009670;28;20029;-75
2023/03/30 10:58:18;;;;;;;2.28;2.00;;;;;;;;;;4988739;28;20403;-75
2023/03/30 11:00:50;;;;;;;2.38;1.55;;;;;;;;;;5021261;28;20029;-76
2023/03/30 11:03:19;;;;;;;4.57;1.92;;;;;;;;;;5020763;28;20060;-76
2023/03/30 11:05:53;;;;;;;3.22;2.35;;;;;;;;;;5019432;28;20053;-76
2023/03/30 11:08:29;;;;;;;2.22;1.95;;;;;;;;;;5020426;28;20136;-75
2023/03/30 11:10:57;;;;;;;3.05;2.20;;;;;;;;;;4984427;28;20907;-75
2023/03/30 11:13:29;;;;;;;4.40;2.42;;;;;;;;;;5013711;28;20017;-75
2023/03/30 11:16:03;;;;;;;4.50;2.53;;;;;;;;;;5012203;28;20033;-75
2023/03/30 11:18:41;;;;;;;4.10;2.45;;;;;;;;;;5010811;28;20048;-74
2023/03/30 11:21:25;;;;;;;5.53;2.40;;;;;;;;;;5021153;28;20025;-75
2023/03/30 11:24:02;;;;;;;3.45;2.53;;;;;;;;;;5013597;28;20053;-75
2023/03/30 11:26:48;;;;;;;7.40;2.78;;;;;;;;;;5020008;28;20392;-76
2023/03/30 11:29:23;;;;;;;3.05;2.10;;;;;;;;;;5015754;28;20474;-76
2023/03/30 11:31:55;;;;;;;2.00;1.63;;;;;;;;;;5020310;28;20519;-76
2023/03/30 11:34:27;;;;;;;2.78;1.85;;;;;;;;;;5019483;28;20219;-75
2023/03/30 11:36:55;;;;;;;2.88;1.63;;;;;;;;;;5007432;28;20437;-75
2023/03/30 11:39:24;;;;;;;2.70;1.73;;;;;;;;;;5004013;28;20025;-77
2023/03/30 11:41:54;;;;;;;1.60;1.50;;;;;;;;;;4994988;28;20069;-75
2023/03/30 11:44:20;;;;;;;2.15;1.58;;;;;;;;;;5025023;28;20021;-76
2023/03/30 11:46:55;;;;;;;2.80;1.40;;;;;;;;;;4979758;28;20050;-75
2023/03/30 11:49:35;;;;;;;3.50;1.52;;;;;;;;;;4983432;28;20415;-76
2023/03/30 11:52:04;;;;;;;2.28;1.77;;;;;;;;;;4995511;28;20778;-75
2023/03/30 11:54:49;;;;;;;2.00;1.80;;;;;;;;;;5001271;28;20021;-78
2023/03/30 11:57:37;;;;;;;3.00;1.80;;;;;;;;;;4991348;28;20511;-75
2023/03/30 12:00:08;;;;;;;2.05;1.52;;;;;;;;;;4990471;28;20038;-76
2023/03/30 12:02:51;;;;;;;3.53;1.90;;;;;;;;;;4990368;28;20053;-75
2023/03/30 12:05:29;;;;;;;4.03;1.80;;;;;;;;;;4996938;28;20541;-76
2023/03/30 12:08:13;;;;;;;2.47;2.28;;;;;;;;;;4991468;28;20092;-76
2023/03/30 12:10:40;;;;;;;2.80;2.00;;;;;;;;;;4999778;28;20018;-76
2023/03/30 12:13:10;;;;;;;1.92;1.58;;;;;;;;;;4975547;28;20042;-77
2023/03/30 12:15:41;;;;;;;1.70;1.58;;;;;;;;;;4995400;28;20104;-75
2023/03/30 12:18:06;;;;;;;3.45;2.08;;;;;;;;;;4997257;28;20102;-77
2023/03/30 12:20:32;;;;;;;2.08;1.80;;;;;;;;;;4997665;28;20026;-77
2023/03/30 12:23:30;;;;;;;2.30;1.77;;;;;;;;;;4998097;28;20029;-77
2023/03/30 12:26:02;;;;;;;3.25;2.00;;;;;;;;;;4947169;28;20525;-76
2023/03/30 12:28:38;;;;;;;1.75;1.63;;;;;;;;;;4998472;28;20849;-77
2023/03/30 12:31:04;;;;;;;4.22;2.38;;;;;;;;;;4993600;28;20445;-76
2023/03/30 12:33:48;;;;;;;3.25;1.70;;;;;;;;;;4978073;28;20121;-77
2023/03/30 12:36:24;;;;;;;2.63;1.90;;;;;;;;;;4996556;28;20040;-76
2023/03/30 12:38:50;;;;;;;3.13;1.65;;;;;;;;;;4995929;28;20041;-75
2023/03/30 12:41:21;;;;;;;2.22;2.03;;;;;;;;;;4997472;28;20026;-79
2023/03/30 12:43:58;;;;;;;4.55;2.10;;;;;;;;;;5000699;28;20037;-76
2023/03/30 12:46:28;;;;;;;8.77;2.03;;;;;;;;;;4989072;28;20029;-77
2023/03/30 12:49:10;;;;;;;2.78;1.75;;;;;;;;;;4968063;28;20050;-77
2023/03/30 12:51:48;;;;;;;2.25;1.55;;;;;;;;;;4974650;28;20026;-76
2023/03/30 12:54:22;;;;;;;2.70;1.63;;;;;;;;;;4991173;28;20022;-76
2023/03/30 12:56:58;;;;;;;2.35;1.77;;;;;;;;;;4988509;28;20038;-76
2023/03/30 12:59:41;;;;;;;1.35;1.25;;;;;;;;;;4982078;28;20616;-76
2023/03/30 13:02:15;;;;;;;1.65;1.42;;;;;;;;;;4990336;28;20037;-75
2023/03/30 13:04:42;;;;;;;1.85;1.50;;;;;;;;;;4979262;28;20145;-76
2023/03/30 13:07:14;;;;;;;2.50;1.30;;;;;;;;;;4976037;28;20383;-75
2023/03/30 13:09:55;;;;;;;2.22;1.35;;;;;;;;;;4987576;28;20589;-76
2023/03/30 13:12:20;;;;;;;2.03;1.20;;;;;;;;;;4993592;28;20022;-76
2023/03/30 13:14:46;;;;;;;1.85;1.15;;;;;;;;;;4974505;28;20042;-76
2023/03/30 13:17:16;;;;;;;2.40;1.67;;;;;;;;;;4987700;28;20018;-76
2023/03/30 13:19:44;;;;;;;3.30;1.58;;;;;;;;;;4995027;28;20080;-76
2023/03/30 13:22:10;;;;;;;3.72;1.70;;;;;;;;;;4995179;28;20022;-76
2023/03/30 13:24:35;;;;;;;2.63;1.35;;;;;;;;;;4988713;28;20025;-76
2023/03/30 13:27:12;;;;;;;3.42;1.40;;;;;;;;;;4976300;28;20033;-77
2023/03/30 13:29:38;;;;;;;3.35;1.50;;;;;;;;;;4997667;28;20033;-76
2023/03/30 13:32:22;;;;;;;2.88;1.40;;;;;;;;;;4990738;28;20018;-77
2023/03/30 13:34:58;;;;;;;2.10;1.42;;;;;;;;;;4988199;28;20190;-76
2023/03/30 13:37:30;;;;;;;4.30;1.60;;;;;;;;;;4967422;28;20028;-76
2023/03/30 13:40:06;;;;;;;1.60;1.50;;;;;;;;;;4988076;28;20487;-76
2023/03/30 13:42:50;;;;;;;1.55;1.45;;;;;;;;;;4969567;28;20044;-76
2023/03/30 13:45:27;;;;;;;1.90;1.55;;;;;;;;;;4985173;28;20423;-77
2023/03/30 13:48:00;;;;;;;1.67;1.45;;;;;;;;;;4997633;28;20944;-76
2023/03/30 13:50:27;;;;;;;2.30;1.15;;;;;;;;;;4990523;28;20056;-77
2023/03/30 13:52:54;;;;;;;5.32;1.48;;;;;;;;;;4990321;28;20033;-76
2023/03/30 13:55:39;;;;;;;1.60;1.30;;;;;;;;;;4988703;28;20026;-75
2023/03/30 13:58:23;;;;;;;3.22;1.83;;;;;;;;;;4997785;28;20076;-76
2023/03/30 14:00:53;;;;;;;2.70;1.20;;;;;;;;;;4997143;28;20102;-76
2023/03/30 14:03:25;;;;;;;1.92;1.30;;;;;;;;;;4998435;28;20490;-76
2023/03/30 14:05:51;;;;;;;2.03;1.23;;;;;;;;;;4996149;28;20437;-76
2023/03/30 14:08:17;;;;;;;3.85;1.25;;;;;;;;;;4995924;28;20038;-77
2023/03/30 14:10:46;;;;;;;2.83;1.10;;;;;;;;;;4998624;28;20060;-77
2023/03/30 14:13:11;;;;;;;2.83;1.23;;;;;;;;;;4981245;28;20573;-77
2023/03/30 14:15:37;;;;;;;2.03;1.30;;;;;;;;;;5002419;28;20037;-77
2023/03/30 14:18:04;;;;;;;2.13;1.30;;;;;;;;;;4979639;28;20112;-76
2023/03/30 14:20:53;;;;;;;3.13;1.23;;;;;;;;;;4996691;28;20047;-76
2023/03/30 14:23:29;;;;;;;3.45;1.27;;;;;;;;;;4997041;28;20036;-76
2023/03/30 14:25:59;;;;;;;2.60;1.20;;;;;;;;;;4982791;28;20040;-77
2023/03/30 14:28:26;;;;;;;1.92;1.40;;;;;;;;;;4993832;28;20033;-76
2023/03/30 14:30:51;;;;;;;1.85;1.00;;;;;;;;;;5006128;28;20419;-76
2023/03/30 14:33:17;;;;;;;4.93;1.20;;;;;;;;;;4994171;28;20030;-75
2023/03/30 14:35:49;;;;;;;4.10;2.08;;;;;;;;;;4987174;28;20554;-76
2023/03/30 14:38:18;;;;;;;2.00;1.85;;;;;;;;;;4983763;28;20100;-76
2023/03/30 14:40:45;;;;;;;5.07;1.60;;;;;;;;;;5000621;28;20227;-77
2023/03/30 14:43:12;;;;;;;2.95;1.27;;;;;;;;;;5001143;28;20029;-76
2023/03/30 14:45:37;;;;;;;2.20;1.50;;;;;;;;;;4986777;28;20534;-76
2023/03/30 14:48:03;;;;;;;2.30;1.40;;;;;;;;;;5000445;28;20117;-76
2023/03/30 14:50:28;;;;;;;2.00;1.35;;;;;;;;;;4994710;28;20026;-76
2023/03/30 14:52:54;;;;;;;3.08;1.45;;;;;;;;;;4985166;28;20026;-75
2023/03/30 14:55:22;;;;;;;5.35;1.20;;;;;;;;;;4982973;28;20025;-75